ADDS METAR Data INFO
IDs: Format: Raw Decoded Include TAF

Data at: 0715 UTC 24 Jun 2018

KJLN 240653Z AUTO 00000KT 10SM CLR 22/19 A2984 RMK AO2 SLP093 T02220189
KJLN 240553Z AUTO 15005KT 10SM CLR 22/19 A2984 RMK AO2 SLP092 T02220189 10300 20222 403110183 53001
KJLN 240453Z AUTO 15003KT 10SM CLR 23/19 A2983 RMK AO2 SLP091 T02280194
KJLN 240353Z AUTO 16005KT 10SM CLR 24/19 A2984 RMK AO2 SLP093 T02390194
KJLN 240253Z AUTO 17004KT 10SM CLR 24/19 A2983 RMK AO2 SLP091 T02440189 53009
KJLN 240153Z 17005KT 10SM CLR 25/19 A2981 RMK AO2 SLP084 T02500189
KJLN 240053Z 19006KT 10SM CLR 28/19 A2980 RMK AO2 SLP081 T02830194
KJLN 232353Z 21008KT 10SM CLR 30/19 A2980 RMK AO2 SLP082 T03000189 10311 20278 58002
KJLN 232253Z VRB04KT 10SM CLR 31/19 A2981 RMK AO2 SLP082 T03060194
KJLN 232153Z 24007KT 10SM FEW050 31/20 A2981 RMK AO2 SLP085 T03060200
KJLN 232053Z 26009KT 210V280 10SM FEW050 31/19 A2981 RMK AO2 SLP084 T03060194 58004
KJLN 231953Z 26007KT 10SM SCT043 30/20 A2982 RMK AO2 SLP085 T03000200
KJLN 231853Z COR 27007KT 10SM SCT030 29/20 A2982 RMK AO2 SLP087 T02940200
KJLN 231753Z 24007G15KT 10SM CLR 29/19 A2982 RMK AO2 SLP088 T02890194 10289 20194 50004
KJLN 231653Z 24007KT 10SM CLR 27/19 A2983 RMK AO2 SLP090 T02670194
KJLN 231453Z 00000KT 10SM CLR 23/19 A2981 RMK AO2 SLP086 T02330194 51007
KJLN 231353Z 00000KT 10SM CLR 22/19 A2981 RMK AO2 SLP085 T02220189
KJLN 231253Z VRB04KT 10SM CLR 21/18 A2979 RMK AO2 SLP079 T02110183
KJLN 231153Z VRB04KT 10SM CLR 19/18 A2979 RMK AO2 SLP077 T01940178 10206 20183 50006
KJLN 231053Z 00000KT 10SM CLR 19/18 A2980 RMK AO2 SLP081 T01890178
KJLN 230953Z AUTO 08004KT 10SM CLR 19/18 A2978 RMK AO2 SLP073 T01940178
KJLN 230853Z AUTO 09004KT 10SM CLR 19/18 A2977 RMK AO2 SLP070 T01940178 55028
KJLN 230753Z AUTO 10010G19KT 10SM CLR 20/18 A2973 RMK AO2 SLP056 T02000178
KJLN 230653Z AUTO 00000KT 10SM FEW120 19/18 A2983 RMK AO2 SLP091 T01940178
KJLN 230553Z AUTO 00000KT 10SM FEW047 19/18 A2986 RMK AO2 SLP101 T01940178 10272 20194 402830167 50020
KJLN 230453Z AUTO 33005KT 10SM BKN047 20/18 A2989 RMK AO2 SLP111 T02000178
KJLN 230353Z AUTO 06004KT 10SM CLR 21/17 A2982 RMK AO2 SLP088 T02110172
KJLN 230253Z AUTO 05004KT 10SM CLR 21/18 A2980 RMK AO2 SLP081 T02110178 53013
KJLN 230153Z 04003KT 10SM CLR 23/18 A2977 RMK AO2 SLP073 T02330178
KJLN 230053Z 01005KT 10SM CLR 26/17 A2976 RMK AO2 SLP069 T02560172
KJLN 222353Z 36004KT 10SM CLR 27/17 A2976 RMK AO2 SLP067 T02720172 10283 20250 56019
KJLN 222253Z 34005KT 10SM FEW045 28/18 A2977 RMK AO2 SLP070 T02780178
KJLN 222153Z 32008KT 10SM FEW047 28/17 A2980 RMK AO2 SLP080 T02780172
KJLN 222053Z 29006KT 10SM SCT042 28/18 A2981 RMK AO2 SLP086 T02780183 58018
KJLN 221953Z 27010G16KT 10SM BKN039 BKN048 28/18 A2984 RMK AO2 SLP093 T02780183